createdAt,value
2022-11-05T00:02:00.141Z,33.28
2022-11-05T00:05:21.645Z,30.85
2022-11-05T00:08:42.773Z,29.60
2022-11-05T00:12:04.081Z,29.63
2022-11-05T00:15:25.416Z,28.93
2022-11-05T00:18:28.258Z,28.00
2022-11-05T00:21:49.289Z,30.00
2022-11-05T00:25:10.573Z,28.63
2022-11-05T00:28:13.201Z,26.67
2022-11-05T00:31:15.921Z,29.27
2022-11-05T00:34:18.370Z,30.60
2022-11-05T00:37:21.151Z,31.67
2022-11-05T00:40:23.983Z,30.60
2022-11-05T00:43:44.908Z,32.83
2022-11-05T00:46:47.536Z,31.60
2022-11-05T00:49:49.844Z,27.25
2022-11-05T00:52:57.727Z,27.88
2022-11-05T00:56:00.697Z,27.43
2022-11-05T00:59:03.061Z,27.73
2022-11-05T01:02:05.831Z,28.05
2022-11-05T01:05:08.938Z,28.60
2022-11-05T01:08:12.576Z,29.23
2022-11-05T01:11:33.275Z,30.30
2022-11-05T01:14:35.909Z,32.22
2022-11-05T01:17:38.713Z,33.60
2022-11-05T01:20:41.386Z,29.38
2022-11-05T01:23:43.866Z,29.08
2022-11-05T01:26:46.500Z,27.77
2022-11-05T01:29:49.160Z,32.97
2022-11-05T01:32:51.920Z,26.83
2022-11-05T01:35:54.326Z,25.95
2022-11-05T01:38:56.916Z,28.42
2022-11-05T01:41:59.549Z,35.30
2022-11-05T01:45:10.754Z,27.30
2022-11-05T01:48:15.526Z,30.63
2022-11-05T01:51:21.929Z,22.67
2022-11-05T01:54:29.596Z,28.60
2022-11-05T01:57:33.021Z,24.43
2022-11-05T02:00:36.413Z,27.77
2022-11-05T02:03:39.980Z,26.20
2022-11-05T02:06:46.192Z,30.10
2022-11-05T02:10:01.182Z,30.60
2022-11-05T02:13:03.833Z,28.63
2022-11-05T02:16:17.344Z,29.70
2022-11-05T02:19:51.966Z,27.27
2022-11-05T02:23:20.477Z,25.83
2022-11-05T02:26:37.702Z,27.60
2022-11-05T02:29:42.992Z,28.43
2022-11-05T02:33:29.016Z,29.17
2022-11-05T02:36:56.632Z,30.27
2022-11-05T02:40:24.417Z,29.63
2022-11-05T02:43:53.038Z,28.20
2022-11-05T02:47:04.404Z,28.13
2022-11-05T02:50:35.190Z,28.55
2022-11-05T02:53:58.894Z,30.17
2022-11-05T02:57:03.067Z,29.90
2022-11-05T03:00:27.294Z,28.83
2022-11-05T03:03:44.823Z,30.40
2022-11-05T03:06:53.006Z,28.92
2022-11-05T03:10:09.954Z,27.23
2022-11-05T03:13:27.254Z,29.48
2022-11-05T03:16:39.527Z,29.77
2022-11-05T03:19:41.905Z,29.52
2022-11-05T03:22:51.522Z,29.25
2022-11-05T03:26:10.494Z,29.17
2022-11-05T03:29:19.802Z,30.15
2022-11-05T03:32:23.968Z,28.23
2022-11-05T03:35:31.735Z,25.93
2022-11-05T03:38:38.985Z,32.33
2022-11-05T03:41:46.821Z,28.60
2022-11-05T03:44:52.663Z,29.52
2022-11-05T03:47:58.847Z,31.25
2022-11-05T03:51:10.553Z,26.90
2022-11-05T03:54:13.460Z,31.35
2022-11-05T03:57:29.565Z,29.40
2022-11-05T04:00:32.541Z,30.27
2022-11-05T04:03:36.656Z,36.20
2022-11-05T04:06:57.665Z,31.90
2022-11-05T04:10:18.827Z,30.92
2022-11-05T04:13:24.141Z,34.65
2022-11-05T04:16:45.292Z,30.20
2022-11-05T04:20:06.189Z,32.38
2022-11-05T04:23:28.175Z,36.90
2022-11-05T04:26:30.661Z,34.10
2022-11-05T04:29:51.977Z,37.27
2022-11-05T04:33:06.284Z,35.08
2022-11-05T04:36:09.108Z,39.08
2022-11-05T04:39:11.496Z,37.77
2022-11-05T04:42:14.004Z,34.08
2022-11-05T04:45:16.616Z,32.85
2022-11-05T04:48:19.224Z,39.67
2022-11-05T04:51:21.782Z,37.30
2022-11-05T04:54:24.110Z,34.70
2022-11-05T04:57:26.746Z,33.30
2022-11-05T05:00:29.241Z,30.87
2022-11-05T05:03:32.000Z,30.80
2022-11-05T05:06:34.547Z,27.23
2022-11-05T05:09:37.124Z,29.50
2022-11-05T05:12:39.789Z,32.83
2022-11-05T05:15:42.119Z,29.95
2022-11-05T05:18:46.394Z,31.52
2022-11-05T05:21:49.116Z,32.15
2022-11-05T05:24:52.924Z,28.13
2022-11-05T05:27:58.832Z,29.00
2022-11-05T05:31:01.487Z,32.50
2022-11-05T05:34:05.520Z,30.60
2022-11-05T05:37:08.269Z,33.63
2022-11-05T05:40:11.303Z,32.80
2022-11-05T05:43:14.076Z,30.73
2022-11-05T05:46:19.102Z,37.10
2022-11-05T05:49:21.625Z,33.35
2022-11-05T05:52:24.173Z,38.67
2022-11-05T05:55:26.494Z,36.35
2022-11-05T05:58:33.364Z,37.55
2022-11-05T06:01:35.902Z,32.60
2022-11-05T06:04:38.678Z,41.22
2022-11-05T06:07:41.492Z,40.03
2022-11-05T06:10:50.547Z,44.67
2022-11-05T06:13:53.271Z,47.28
2022-11-05T06:16:55.650Z,61.85
2022-11-05T06:19:58.474Z,37.58
2022-11-05T06:23:00.901Z,43.13
2022-11-05T06:26:05.342Z,39.03
2022-11-05T06:29:08.591Z,50.05
2022-11-05T06:32:11.269Z,43.20
2022-11-05T06:35:14.032Z,56.30
2022-11-05T06:38:16.861Z,63.80
2022-11-05T06:41:19.551Z,69.67
2022-11-05T06:44:22.481Z,53.58
2022-11-05T06:47:24.852Z,60.22
2022-11-05T06:50:29.754Z,50.17
2022-11-05T06:53:32.543Z,52.20
2022-11-05T06:56:34.887Z,62.95
2022-11-05T06:59:38.973Z,56.88
2022-11-05T07:02:41.325Z,59.40
2022-11-05T07:05:46.366Z,53.53
2022-11-05T07:08:49.097Z,64.70
2022-11-05T07:11:51.647Z,64.33
2022-11-05T07:14:54.630Z,55.50
2022-11-05T07:17:58.846Z,49.28
2022-11-05T07:21:01.632Z,64.45
2022-11-05T07:24:04.454Z,54.35
2022-11-05T07:27:06.808Z,189.93
2022-11-05T07:30:10.645Z,108.28
2022-11-05T07:33:13.824Z,54.50
2022-11-05T07:36:16.971Z,46.80
2022-11-05T07:39:19.804Z,51.15
2022-11-05T07:42:22.479Z,91.43
2022-11-05T07:45:26.318Z,120.03
2022-11-05T07:48:28.756Z,61.08
2022-11-05T07:51:31.523Z,46.55
2022-11-05T07:54:34.136Z,44.80
2022-11-05T07:57:47.419Z,45.63
2022-11-05T08:00:50.070Z,42.78
2022-11-05T08:03:52.569Z,37.30
2022-11-05T08:06:55.260Z,39.42
2022-11-05T08:09:57.734Z,38.78
2022-11-05T08:13:00.415Z,37.70
2022-11-05T08:16:04.227Z,46.45
2022-11-05T08:19:06.729Z,53.28
2022-11-05T08:22:09.033Z,41.90
2022-11-05T08:25:12.780Z,43.47
2022-11-05T08:28:15.305Z,39.95
2022-11-05T08:31:18.130Z,36.42
2022-11-05T08:34:20.472Z,37.30
2022-11-05T08:37:23.492Z,37.80
2022-11-05T08:40:27.107Z,41.13
2022-11-05T08:43:29.532Z,41.53
2022-11-05T08:46:32.072Z,38.42
2022-11-05T08:49:34.434Z,39.55
2022-11-05T08:52:40.354Z,42.78
2022-11-05T08:55:43.935Z,43.90
2022-11-05T08:58:46.544Z,43.90
2022-11-05T09:01:50.576Z,44.20
2022-11-05T09:04:53.037Z,41.90
2022-11-05T09:08:00.761Z,43.58
2022-11-05T09:11:04.045Z,39.67
2022-11-05T09:14:06.394Z,46.40
2022-11-05T09:17:20.538Z,44.15
2022-11-05T09:20:25.524Z,44.25
2022-11-05T09:23:28.046Z,46.25
2022-11-05T09:26:30.702Z,46.72
2022-11-05T09:29:33.025Z,47.47
2022-11-05T09:32:36.153Z,40.63
2022-11-05T09:35:39.926Z,35.17
2022-11-05T09:38:42.534Z,38.30
2022-11-05T09:41:46.891Z,38.83
2022-11-05T09:45:18.652Z,36.10
2022-11-05T09:48:24.974Z,37.75
2022-11-05T09:51:27.353Z,36.53
2022-11-05T09:54:33.212Z,39.60
2022-11-05T09:57:47.998Z,62.22
2022-11-05T10:00:52.858Z,115.32
2022-11-05T10:03:58.263Z,84.97
2022-11-05T10:07:04.304Z,92.03
2022-11-05T10:10:09.091Z,58.45
2022-11-05T10:13:41.236Z,65.28
2022-11-05T10:16:48.945Z,46.40
2022-11-05T10:20:30.477Z,53.15
2022-11-05T10:23:33.676Z,56.40
2022-11-05T10:26:36.356Z,42.80
2022-11-05T10:29:39.230Z,39.65
2022-11-05T10:32:43.716Z,45.97
2022-11-05T10:35:57.587Z,36.03
2022-11-05T10:39:17.546Z,37.30
2022-11-05T10:42:38.686Z,41.50
2022-11-05T10:45:48.955Z,43.85
2022-11-05T10:49:15.235Z,39.10
2022-11-05T10:52:25.058Z,46.78
2022-11-05T10:55:29.270Z,56.17
2022-11-05T10:58:34.807Z,56.95
2022-11-05T11:01:37.825Z,55.40
2022-11-05T11:04:40.598Z,48.00
2022-11-05T11:07:43.405Z,53.08
2022-11-05T11:10:58.826Z,56.77
2022-11-05T11:14:13.297Z,47.92
2022-11-05T11:17:36.072Z,47.85
2022-11-05T11:20:44.298Z,43.37
2022-11-05T11:23:58.343Z,51.10
2022-11-05T11:27:09.390Z,49.78
2022-11-05T11:30:18.330Z,45.80
2022-11-05T11:33:26.359Z,81.70
2022-11-05T11:36:45.257Z,50.92
2022-11-05T11:39:51.981Z,49.40
2022-11-05T11:42:57.793Z,48.80
2022-11-05T11:46:06.059Z,58.10
2022-11-05T11:49:39.138Z,63.17
2022-11-05T11:52:43.068Z,41.17
2022-11-05T11:56:20.312Z,41.05
2022-11-05T11:59:46.902Z,76.88
2022-11-05T12:03:20.355Z,49.42
2022-11-05T12:06:40.229Z,53.50
2022-11-05T12:10:21.985Z,56.25
2022-11-05T12:13:49.918Z,63.75
2022-11-05T12:17:23.460Z,59.00
2022-11-05T12:21:04.806Z,72.10
2022-11-05T12:24:22.240Z,65.15
2022-11-05T12:27:44.226Z,60.03
2022-11-05T12:30:59.027Z,45.65
2022-11-05T12:34:38.264Z,49.75
2022-11-05T12:38:19.034Z,46.92
2022-11-05T12:41:31.494Z,48.78
2022-11-05T12:44:57.261Z,49.47
2022-11-05T12:48:02.978Z,42.67
2022-11-05T12:51:17.257Z,54.73
2022-11-05T12:54:44.289Z,45.75
2022-11-05T12:57:51.634Z,71.53
2022-11-05T13:01:24.977Z,67.33
2022-11-05T13:04:50.733Z,48.58
2022-11-05T13:08:07.651Z,37.67
2022-11-05T13:11:26.273Z,40.25
2022-11-05T13:14:33.478Z,40.30
2022-11-05T13:17:51.625Z,45.33
2022-11-05T13:20:56.556Z,40.28
2022-11-05T13:24:11.024Z,40.70
2022-11-05T13:27:22.445Z,45.40
2022-11-05T13:30:30.369Z,36.00
2022-11-05T13:33:40.396Z,40.60
2022-11-05T13:37:42.369Z,43.17
2022-11-05T13:41:24.086Z,32.80
2022-11-05T13:44:50.359Z,38.25
2022-11-05T13:48:22.210Z,46.95
2022-11-05T13:51:48.917Z,40.75
2022-11-05T13:55:31.353Z,31.95
2022-11-05T13:58:52.018Z,39.70
2022-11-05T14:02:04.526Z,35.53
2022-11-05T14:05:17.323Z,31.90
2022-11-05T14:08:25.406Z,32.53
2022-11-05T14:11:47.747Z,27.88
2022-11-05T14:14:59.167Z,21.58
2022-11-05T14:18:39.359Z,20.25
2022-11-05T14:21:52.968Z,10.73
2022-11-05T14:24:55.420Z,10.70
2022-11-05T14:27:58.306Z,7.82
2022-11-05T14:31:13.361Z,7.13
2022-11-05T14:34:16.479Z,6.25
2022-11-05T14:37:29.813Z,6.38
2022-11-05T14:40:38.050Z,8.93
2022-11-05T14:43:47.369Z,4.13
2022-11-05T14:46:53.679Z,3.67
2022-11-05T14:50:07.739Z,6.45
2022-11-05T14:53:33.696Z,3.28
2022-11-05T14:56:56.478Z,3.65
2022-11-05T15:00:00.877Z,4.07
2022-11-05T15:03:32.890Z,1.90
2022-11-05T15:06:36.910Z,2.75
2022-11-05T15:09:58.204Z,3.78
2022-11-05T15:13:06.053Z,1.60
2022-11-05T15:16:08.961Z,3.75
2022-11-05T15:19:19.989Z,5.13
2022-11-05T15:22:35.769Z,6.70
2022-11-05T15:25:55.049Z,3.72
2022-11-05T15:28:57.632Z,3.15
2022-11-05T15:32:00.449Z,2.72
2022-11-05T15:35:17.573Z,8.30
2022-11-05T15:38:34.046Z,1.95
2022-11-05T15:41:36.673Z,3.22
2022-11-05T15:44:41.431Z,2.33
2022-11-05T15:47:46.514Z,6.03
2022-11-05T15:50:49.986Z,4.88
2022-11-05T15:57:29.035Z,4.20
2022-11-05T16:00:34.521Z,3.95
2022-11-05T16:03:39.281Z,4.20
2022-11-05T16:06:44.900Z,5.80
2022-11-05T16:10:01.821Z,6.65
2022-11-05T16:13:36.659Z,8.15
2022-11-05T16:16:39.020Z,6.07
2022-11-05T16:19:42.512Z,4.53
2022-11-05T16:22:47.095Z,3.67
2022-11-05T16:25:50.599Z,8.38
2022-11-05T16:28:54.245Z,3.92
2022-11-05T16:31:59.010Z,3.55
2022-11-05T16:35:05.237Z,4.03
2022-11-05T16:38:12.169Z,1.90
2022-11-05T16:41:17.180Z,2.60
2022-11-05T16:44:20.086Z,1.80
2022-11-05T16:47:23.260Z,3.83
2022-11-05T16:50:31.313Z,12.38
2022-11-05T16:53:34.345Z,9.07
2022-11-05T16:56:37.364Z,7.43
2022-11-05T16:59:40.254Z,5.32
2022-11-05T17:02:43.334Z,2.78
2022-11-05T17:05:46.643Z,2.60
2022-11-05T17:08:49.615Z,2.47
2022-11-05T17:11:52.866Z,4.25
2022-11-05T17:14:55.896Z,4.28
2022-11-05T17:17:59.551Z,6.70
2022-11-05T17:21:02.435Z,3.42
2022-11-05T17:24:05.880Z,4.88
2022-11-05T17:27:08.768Z,3.05
2022-11-05T17:30:12.419Z,2.97
2022-11-05T17:33:16.444Z,4.40
2022-11-05T17:36:19.446Z,5.03
2022-11-05T17:39:28.726Z,9.40
2022-11-05T17:42:34.390Z,5.35
2022-11-05T17:45:44.828Z,7.80
2022-11-05T17:48:47.911Z,5.43
2022-11-05T17:51:50.763Z,3.13
2022-11-05T17:54:54.058Z,2.95
2022-11-05T17:57:57.247Z,2.10
2022-11-05T18:00:59.993Z,3.42
2022-11-05T18:04:08.717Z,3.10
2022-11-05T18:07:11.843Z,3.38
2022-11-05T18:10:16.312Z,1.50
2022-11-05T18:13:19.484Z,2.22
2022-11-05T18:16:22.298Z,3.33
2022-11-05T18:19:25.404Z,3.13
2022-11-05T18:22:28.377Z,3.05
2022-11-05T18:25:31.730Z,3.58
2022-11-05T18:28:34.689Z,3.40
2022-11-05T18:31:37.759Z,3.83
2022-11-05T18:34:40.714Z,5.80
2022-11-05T18:37:43.620Z,2.28
2022-11-05T18:40:46.585Z,4.77
2022-11-05T18:43:49.655Z,2.85
2022-11-05T18:46:58.253Z,3.67
2022-11-05T18:50:02.352Z,3.63
2022-11-05T18:53:05.372Z,3.60
2022-11-05T18:56:10.488Z,3.25
2022-11-05T19:02:41.945Z,2.88
2022-11-05T19:05:44.772Z,3.22
2022-11-05T19:08:47.971Z,4.63
2022-11-05T19:11:52.244Z,5.80
2022-11-05T19:15:00.921Z,3.30
2022-11-05T19:18:05.978Z,2.63
2022-11-05T19:21:11.351Z,1.53
2022-11-05T19:24:17.403Z,1.92
2022-11-05T19:27:20.559Z,2.35
2022-11-05T19:30:23.452Z,5.07
2022-11-05T19:33:26.440Z,2.83
2022-11-05T19:36:30.206Z,2.72
2022-11-05T19:39:33.233Z,3.30
2022-11-05T19:42:36.435Z,3.60
2022-11-05T19:45:45.056Z,3.22
2022-11-05T19:48:48.420Z,2.55
2022-11-05T19:51:52.133Z,2.17
2022-11-05T19:54:55.319Z,2.47
2022-11-05T19:57:58.594Z,2.97
2022-11-05T20:01:01.783Z,2.33
2022-11-05T20:04:05.877Z,7.93
2022-11-05T20:07:08.867Z,2.08
2022-11-05T20:10:11.629Z,2.00
2022-11-05T20:13:19.602Z,2.27
2022-11-05T20:16:28.554Z,3.05
2022-11-05T20:19:31.357Z,2.85
2022-11-05T20:22:34.520Z,3.63
2022-11-05T20:25:37.494Z,2.50
2022-11-05T20:28:42.763Z,3.05
2022-11-05T20:31:46.527Z,3.88
2022-11-05T20:34:49.255Z,2.50
2022-11-05T20:37:54.141Z,3.50
2022-11-05T20:40:57.306Z,3.63
2022-11-05T20:44:00.435Z,2.37
2022-11-05T20:47:03.303Z,2.40
2022-11-05T20:50:06.900Z,5.75
2022-11-05T20:53:11.431Z,2.20
2022-11-05T20:56:23.478Z,2.20
2022-11-05T20:59:26.517Z,4.10
2022-11-05T21:02:29.515Z,2.80
2022-11-05T21:05:35.657Z,3.38
2022-11-05T21:08:39.257Z,3.85
2022-11-05T21:12:00.588Z,2.75
2022-11-05T21:15:03.667Z,2.43
2022-11-05T21:18:06.646Z,3.00
2022-11-05T21:21:15.645Z,2.72
2022-11-05T21:24:18.501Z,2.50
2022-11-05T21:27:21.313Z,2.45
2022-11-05T21:30:24.415Z,2.38
2022-11-05T21:33:27.706Z,2.85
2022-11-05T21:36:30.497Z,3.42
2022-11-05T21:39:36.433Z,3.90
2022-11-05T21:42:40.764Z,1.80
2022-11-05T21:45:45.266Z,2.60
2022-11-05T21:48:48.224Z,1.83
2022-11-05T21:52:11.252Z,6.43
2022-11-05T21:55:32.745Z,1.67
2022-11-05T21:58:54.225Z,2.17
2022-11-05T22:02:01.720Z,3.22
2022-11-05T22:05:05.716Z,2.58
2022-11-05T22:08:09.506Z,2.22
2022-11-05T22:11:12.306Z,1.80
2022-11-05T22:14:14.860Z,2.80
2022-11-05T22:17:18.362Z,3.23
2022-11-05T22:20:22.721Z,2.47
2022-11-05T22:23:25.368Z,2.47
2022-11-05T22:26:28.341Z,2.13
2022-11-05T22:29:31.763Z,3.80
2022-11-05T22:32:34.491Z,2.10
2022-11-05T22:35:39.379Z,2.35
2022-11-05T22:38:42.060Z,0.85
2022-11-05T22:41:45.123Z,3.95
2022-11-05T22:44:47.743Z,3.08
2022-11-05T22:47:50.569Z,2.83
2022-11-05T22:50:53.440Z,1.73
2022-11-05T22:53:55.863Z,1.80
2022-11-05T22:56:58.329Z,2.87
2022-11-05T23:00:01.002Z,3.15
2022-11-05T23:03:03.876Z,2.25
2022-11-05T23:06:34.175Z,2.15
2022-11-05T23:09:55.460Z,2.50
2022-11-05T23:12:57.994Z,2.90
2022-11-05T23:16:18.640Z,2.22
2022-11-05T23:19:39.746Z,1.43
2022-11-05T23:23:00.892Z,2.55
2022-11-05T23:26:23.240Z,2.13
2022-11-05T23:29:27.016Z,3.43
2022-11-05T23:32:31.058Z,1.35
2022-11-05T23:35:53.350Z,2.20
2022-11-05T23:38:56.617Z,2.05
2022-11-05T23:42:17.588Z,1.50
2022-11-05T23:45:38.939Z,1.88
2022-11-05T23:48:41.242Z,2.05
2022-11-05T23:51:43.876Z,1.97
2022-11-05T23:54:46.796Z,2.70
2022-11-05T23:57:49.470Z,2.25
